Hartsgrove, Ohio
Current Conditions -  °F | °C
As of 4:53 PM on Saturday 25 Oct 2014 (Local Time) from KHZY Reporting Station
Clear Clear  
Wind Chill: 62°   Ceiling: Unl
Heat Index: 62°   Visibility: 9mi
Dew Point: 53°   Wind: 15mph
Humidity: 72%   Direction: 270°W
Pressure: 29.74"   Gusts: 22mph
Location:  41.6051°N, 80.867°W
Report Text: KHZY 252053Z AUTO 27013G19KT 9SM CLR 17/12 A2974 RMK AO2 SLP069 T01670117 56009
Loading
Personal Weather Stations






























Interactive Weather Map
Tropical Storm Tracking
New forecast layout! Learn more

10-Day Weather Forecast

Advertisements
Track Severe Weather on mobile